createdAt,value
2023-02-16T00:00:32.691Z,27.70
2023-02-16T00:03:01.911Z,23.83
2023-02-16T00:05:35.354Z,21.27
2023-02-16T00:08:02.386Z,24.17
2023-02-16T00:10:36.789Z,25.23
2023-02-16T00:13:44.401Z,20.38
2023-02-16T00:16:16.848Z,23.67
2023-02-16T00:18:47.205Z,22.77
2023-02-16T00:21:16.425Z,21.35
2023-02-16T00:23:43.472Z,21.67
2023-02-16T00:26:21.966Z,18.80
2023-02-16T00:28:58.458Z,22.85
2023-02-16T00:31:29.434Z,23.48
2023-02-16T00:34:19.326Z,25.95
2023-02-16T00:36:46.263Z,28.25
2023-02-16T00:39:13.169Z,29.80
2023-02-16T00:41:52.248Z,30.23
2023-02-16T00:44:32.750Z,25.88
2023-02-16T00:47:37.506Z,26.45
2023-02-16T00:50:13.972Z,25.00
2023-02-16T00:52:43.825Z,27.92
2023-02-16T00:55:13.866Z,25.63
2023-02-16T00:58:08.484Z,23.33
2023-02-16T01:00:52.003Z,20.13
2023-02-16T01:03:24.098Z,20.63
2023-02-16T01:06:15.499Z,26.77
2023-02-16T01:09:01.431Z,18.17
2023-02-16T01:11:29.189Z,22.30
2023-02-16T01:13:57.358Z,23.15
2023-02-16T01:16:27.828Z,17.60
2023-02-16T01:18:54.805Z,23.83
2023-02-16T01:21:24.467Z,29.55
2023-02-16T01:23:54.036Z,20.77
2023-02-16T01:26:23.940Z,22.58
2023-02-16T01:28:51.103Z,20.52
2023-02-16T01:31:18.348Z,26.15
2023-02-16T01:38:49.373Z,23.17
2023-02-16T01:41:47.251Z,25.70
2023-02-16T01:44:46.590Z,21.52
2023-02-16T01:47:29.635Z,27.52
2023-02-16T01:50:03.292Z,24.52
2023-02-16T01:52:30.719Z,27.05
2023-02-16T01:55:22.643Z,28.38
2023-02-16T01:58:04.596Z,31.92
2023-02-16T02:00:52.933Z,25.83
2023-02-16T02:03:43.351Z,27.95
2023-02-16T02:06:19.397Z,28.20
2023-02-16T02:08:56.770Z,24.35
2023-02-16T02:11:35.450Z,32.92
2023-02-16T02:14:15.651Z,28.00
2023-02-16T02:17:03.482Z,26.77
2023-02-16T02:19:45.383Z,23.85
2023-02-16T02:22:53.189Z,22.63
2023-02-16T02:25:52.993Z,23.10
2023-02-16T02:29:03.488Z,25.20
2023-02-16T02:32:00.179Z,26.90
2023-02-16T02:35:04.044Z,22.65
2023-02-16T02:37:47.500Z,23.90
2023-02-16T02:40:30.397Z,28.90
2023-02-16T02:43:20.079Z,22.92
2023-02-16T02:45:53.542Z,22.10
2023-02-16T02:48:22.070Z,23.80
2023-02-16T02:51:18.054Z,25.77
2023-02-16T02:54:14.860Z,26.45
2023-02-16T02:57:06.511Z,20.95
2023-02-16T02:59:54.066Z,23.67
2023-02-16T03:02:24.357Z,19.20
2023-02-16T03:04:53.826Z,19.58
2023-02-16T03:07:43.948Z,27.80
2023-02-16T03:10:29.700Z,22.77
2023-02-16T03:12:57.775Z,26.60
2023-02-16T03:15:26.267Z,22.20
2023-02-16T03:18:16.438Z,25.45
2023-02-16T03:21:03.980Z,23.85
2023-02-16T03:23:51.916Z,23.20
2023-02-16T03:26:40.574Z,22.48
2023-02-16T03:29:38.382Z,21.95
2023-02-16T03:32:07.155Z,21.70
2023-02-16T03:34:37.220Z,19.15
2023-02-16T03:37:05.606Z,24.67
2023-02-16T03:39:57.994Z,20.67
2023-02-16T03:42:25.169Z,23.15
2023-02-16T03:44:52.590Z,20.00
2023-02-16T03:47:19.646Z,24.67
2023-02-16T03:49:46.460Z,26.27
2023-02-16T03:52:13.398Z,23.20
2023-02-16T03:54:40.267Z,21.20
2023-02-16T03:57:08.253Z,23.02
2023-02-16T03:59:35.132Z,19.75
2023-02-16T04:02:02.723Z,21.20
2023-02-16T04:04:29.992Z,21.40
2023-02-16T04:12:12.126Z,20.27
2023-02-16T04:14:43.569Z,23.17
2023-02-16T04:17:10.730Z,24.58
2023-02-16T04:19:37.975Z,22.23
2023-02-16T04:22:08.823Z,26.58
2023-02-16T04:24:36.939Z,24.55
2023-02-16T04:27:03.992Z,23.10
2023-02-16T04:29:33.854Z,21.27
2023-02-16T04:32:00.997Z,20.88
2023-02-16T04:36:54.739Z,22.70
2023-02-16T04:39:22.045Z,24.33
2023-02-16T04:44:17.099Z,25.30
2023-02-16T04:46:44.382Z,24.92
2023-02-16T04:49:14.515Z,24.45
2023-02-16T04:51:41.494Z,19.98
2023-02-16T04:54:08.487Z,26.98
2023-02-16T04:56:35.600Z,23.17
2023-02-16T05:01:54.363Z,25.33
2023-02-16T05:06:51.772Z,29.95
2023-02-16T05:09:19.268Z,29.95
2023-02-16T05:12:07.269Z,26.65
2023-02-16T05:14:42.556Z,20.88
2023-02-16T05:17:21.759Z,26.08
2023-02-16T05:19:51.493Z,23.35
2023-02-16T05:22:22.345Z,29.58
2023-02-16T05:24:50.558Z,42.35
2023-02-16T05:27:23.927Z,31.63
2023-02-16T05:29:53.766Z,28.00
2023-02-16T05:32:24.664Z,27.48
2023-02-16T05:34:51.615Z,22.98
2023-02-16T05:37:19.128Z,25.50
2023-02-16T05:39:48.687Z,25.77
2023-02-16T05:42:15.574Z,25.08
2023-02-16T05:44:42.467Z,23.70
2023-02-16T05:47:11.868Z,25.52
2023-02-16T05:49:38.948Z,29.80
2023-02-16T05:52:06.333Z,44.67
2023-02-16T05:54:38.573Z,31.67
2023-02-16T05:57:10.004Z,24.20
2023-02-16T05:59:37.654Z,21.83
2023-02-16T06:06:59.664Z,20.27
2023-02-16T06:09:26.649Z,20.02
2023-02-16T06:11:53.664Z,23.20
2023-02-16T06:14:21.373Z,26.98
2023-02-16T06:16:54.037Z,25.55
2023-02-16T06:19:21.447Z,21.90
2023-02-16T06:21:51.977Z,22.13
2023-02-16T06:24:20.146Z,21.85
2023-02-16T06:26:47.274Z,20.58
2023-02-16T06:31:41.653Z,25.13
2023-02-16T06:34:08.711Z,27.35
2023-02-16T06:36:36.028Z,25.90
2023-02-16T06:39:03.605Z,23.63
2023-02-16T06:41:40.365Z,25.10
2023-02-16T06:44:13.855Z,23.23
2023-02-16T06:46:41.988Z,22.65
2023-02-16T06:49:12.610Z,24.52
2023-02-16T06:51:42.305Z,19.85
2023-02-16T06:54:11.262Z,23.25
2023-02-16T06:56:42.460Z,25.02
2023-02-16T06:59:11.217Z,24.02
2023-02-16T07:01:38.166Z,24.58
2023-02-16T07:04:07.497Z,27.45
2023-02-16T07:06:34.585Z,30.27
2023-02-16T07:09:04.328Z,43.42
2023-02-16T07:11:31.192Z,43.70
2023-02-16T07:13:58.921Z,30.75
2023-02-16T07:16:25.937Z,39.88
2023-02-16T07:18:52.855Z,46.90
2023-02-16T07:21:20.111Z,34.10
2023-02-16T07:26:14.594Z,32.30
2023-02-16T07:28:41.889Z,37.08
2023-02-16T07:33:40.055Z,38.90
2023-02-16T07:36:08.335Z,41.05
2023-02-16T07:38:35.665Z,40.38
2023-02-16T07:41:09.629Z,49.90
2023-02-16T07:43:38.493Z,49.65
2023-02-16T07:46:06.198Z,42.95
2023-02-16T07:48:33.454Z,34.95
2023-02-16T07:53:27.532Z,33.10
2023-02-16T07:58:27.525Z,32.08
2023-02-16T08:01:08.541Z,26.60
2023-02-16T08:03:39.017Z,24.77
2023-02-16T08:06:10.787Z,21.25
2023-02-16T08:08:43.414Z,25.45
2023-02-16T08:11:19.620Z,24.10
2023-02-16T08:13:47.507Z,27.80
2023-02-16T08:16:23.215Z,23.85
2023-02-16T08:18:51.198Z,21.67
2023-02-16T08:21:21.821Z,22.95
2023-02-16T08:23:58.805Z,24.55
2023-02-16T08:26:28.840Z,22.30
2023-02-16T08:28:58.010Z,26.90
2023-02-16T08:31:29.907Z,22.52
2023-02-16T08:34:00.412Z,29.02
2023-02-16T08:36:32.555Z,24.35
2023-02-16T08:39:00.942Z,20.38
2023-02-16T08:41:40.509Z,25.95
2023-02-16T08:44:10.238Z,26.98
2023-02-16T08:46:41.295Z,21.95
2023-02-16T08:49:11.824Z,22.35
2023-02-16T08:51:43.946Z,23.40
2023-02-16T08:54:19.871Z,21.42
2023-02-16T08:56:49.743Z,28.65
2023-02-16T08:59:21.405Z,23.08
2023-02-16T09:01:51.054Z,23.92
2023-02-16T09:04:19.905Z,22.10
2023-02-16T09:06:48.576Z,19.95
2023-02-16T09:09:16.815Z,26.05
2023-02-16T09:11:44.325Z,23.55
2023-02-16T09:14:20.064Z,24.17
2023-02-16T09:16:48.012Z,19.02
2023-02-16T09:19:26.255Z,20.23
2023-02-16T09:22:08.403Z,23.30
2023-02-16T09:24:51.200Z,25.42
2023-02-16T09:27:28.685Z,20.40
2023-02-16T09:30:15.653Z,21.35
2023-02-16T09:33:08.040Z,20.17
2023-02-16T09:36:34.866Z,21.25
2023-02-16T09:39:12.545Z,19.77
2023-02-16T09:53:02.635Z,24.50
2023-02-16T12:05:54.607Z,10.75
2023-02-16T12:08:50.032Z,6.97
2023-02-16T12:11:28.736Z,6.05
2023-02-16T12:13:59.392Z,8.35
2023-02-16T12:16:39.074Z,9.73
2023-02-16T12:19:41.597Z,11.07
2023-02-16T12:22:14.492Z,12.43
2023-02-16T12:24:49.546Z,7.00
2023-02-16T12:27:18.597Z,8.45
2023-02-16T12:29:59.258Z,7.03
2023-02-16T12:32:53.348Z,8.90
2023-02-16T12:35:38.975Z,8.68
2023-02-16T12:38:11.844Z,9.45
2023-02-16T12:40:51.761Z,9.73
2023-02-16T12:43:41.904Z,6.38
2023-02-16T12:46:21.447Z,7.60
2023-02-16T12:48:56.030Z,20.90
2023-02-16T12:51:38.530Z,5.90
2023-02-16T12:54:29.573Z,7.25
2023-02-16T12:57:13.009Z,5.90
2023-02-16T12:59:49.102Z,7.57
2023-02-16T13:02:27.064Z,8.23
2023-02-16T13:05:00.239Z,5.70
2023-02-16T13:07:38.921Z,8.85
2023-02-16T13:10:47.736Z,5.68
2023-02-16T13:13:23.666Z,6.20
2023-02-16T13:16:27.813Z,7.47
2023-02-16T13:18:58.905Z,7.25
2023-02-16T13:21:52.158Z,6.97
2023-02-16T13:24:45.852Z,8.57
2023-02-16T13:27:27.958Z,8.20
2023-02-16T13:30:22.560Z,5.80
2023-02-16T13:32:58.397Z,3.92
2023-02-16T13:35:44.302Z,7.20
2023-02-16T13:38:34.724Z,6.10
2023-02-16T13:41:10.385Z,7.43
2023-02-16T13:43:47.839Z,5.07
2023-02-16T13:46:30.829Z,5.50
2023-02-16T13:49:02.060Z,6.93
2023-02-16T13:51:41.907Z,4.75
2023-02-16T13:54:27.940Z,7.10
2023-02-16T13:56:55.076Z,7.63
2023-02-16T13:59:24.064Z,9.07
2023-02-16T14:01:53.689Z,5.57
2023-02-16T14:04:22.867Z,8.07
2023-02-16T14:06:51.043Z,8.95
2023-02-16T14:09:20.906Z,10.80
2023-02-16T14:11:57.455Z,8.05
2023-02-16T14:15:19.984Z,7.75
2023-02-16T14:17:47.248Z,5.28
2023-02-16T14:22:57.272Z,5.53
2023-02-16T14:25:27.597Z,6.15
2023-02-16T14:28:03.144Z,7.25
2023-02-16T14:30:39.147Z,9.50
2023-02-16T14:33:16.008Z,8.07
2023-02-16T14:35:47.364Z,15.20
2023-02-16T14:38:17.403Z,8.23
2023-02-16T14:40:59.242Z,22.90
2023-02-16T14:43:26.173Z,11.25
2023-02-16T14:46:19.936Z,6.88
2023-02-16T14:49:11.726Z,8.35
2023-02-16T14:51:56.932Z,5.45
2023-02-16T14:54:45.969Z,9.63
2023-02-16T14:57:23.592Z,8.05
2023-02-16T15:00:00.886Z,9.40
2023-02-16T15:02:34.420Z,8.90
2023-02-16T15:05:36.574Z,10.93
2023-02-16T15:08:22.526Z,10.40
2023-02-16T15:10:54.311Z,10.75
2023-02-16T15:13:24.215Z,6.68
2023-02-16T15:15:56.209Z,6.60
2023-02-16T15:18:29.483Z,6.72
2023-02-16T15:21:00.836Z,8.88
2023-02-16T15:23:38.059Z,6.65
2023-02-16T15:26:15.047Z,7.68
2023-02-16T15:28:42.801Z,6.68
2023-02-16T15:31:25.963Z,6.35
2023-02-16T15:34:05.772Z,6.07
2023-02-16T15:36:45.275Z,5.07
2023-02-16T15:39:16.740Z,8.70
2023-02-16T15:41:48.452Z,7.53
2023-02-16T15:44:32.578Z,10.98
2023-02-16T15:47:10.609Z,8.38
2023-02-16T15:49:40.797Z,10.02
2023-02-16T15:52:21.509Z,10.25
2023-02-16T15:54:52.912Z,9.85
2023-02-16T15:57:38.118Z,6.97
2023-02-16T16:00:21.948Z,5.93
2023-02-16T16:02:51.174Z,6.93
2023-02-16T16:05:28.176Z,7.07
2023-02-16T16:07:57.113Z,7.15
2023-02-16T16:10:37.556Z,8.43
2023-02-16T16:13:12.779Z,5.78
2023-02-16T16:15:48.850Z,8.80
2023-02-16T16:18:45.285Z,8.65
2023-02-16T16:23:40.691Z,8.70
2023-02-16T16:26:19.706Z,7.97
2023-02-16T16:28:46.871Z,9.18
2023-02-16T16:31:17.427Z,9.60
2023-02-16T16:34:02.557Z,6.63
2023-02-16T16:36:54.140Z,13.27
2023-02-16T16:39:33.589Z,11.32
2023-02-16T16:42:15.986Z,17.98
2023-02-16T16:44:57.474Z,8.73
2023-02-16T16:47:33.543Z,7.50
2023-02-16T16:50:00.437Z,11.70
2023-02-16T16:52:33.875Z,10.98
2023-02-16T16:55:03.447Z,16.48
2023-02-16T16:57:31.049Z,12.00
2023-02-16T16:59:57.954Z,23.25
2023-02-16T17:02:24.823Z,17.23
2023-02-16T17:04:51.801Z,12.07
2023-02-16T17:07:20.712Z,11.75
2023-02-16T17:09:49.783Z,8.30
2023-02-16T17:12:19.877Z,9.15
2023-02-16T17:14:47.253Z,10.98
2023-02-16T17:22:19.669Z,14.35
2023-02-16T17:24:47.244Z,13.18
2023-02-16T17:27:19.752Z,16.52
2023-02-16T17:29:49.370Z,18.58
2023-02-16T17:32:16.463Z,14.85
2023-02-16T17:34:44.920Z,21.25
2023-02-16T17:37:12.277Z,16.52
2023-02-16T17:42:11.111Z,20.23
2023-02-16T17:44:40.255Z,17.13
2023-02-16T17:47:09.640Z,17.27
2023-02-16T17:49:38.986Z,13.30
2023-02-16T17:52:10.928Z,14.23
2023-02-16T17:54:38.425Z,10.80
2023-02-16T17:57:05.467Z,13.23
2023-02-16T17:59:34.285Z,19.48
2023-02-16T18:02:04.368Z,25.67
2023-02-16T18:04:36.043Z,22.63
2023-02-16T18:07:08.052Z,17.70
2023-02-16T18:09:35.189Z,17.38
2023-02-16T18:12:02.428Z,12.43
2023-02-16T18:14:29.495Z,14.30
2023-02-16T18:17:01.810Z,12.65
2023-02-16T18:19:31.480Z,16.73
2023-02-16T18:21:58.590Z,17.73
2023-02-16T18:24:26.100Z,19.13
2023-02-16T18:26:54.763Z,20.52
2023-02-16T18:29:21.905Z,14.10
2023-02-16T18:36:45.364Z,17.52
2023-02-16T18:39:12.383Z,14.48
2023-02-16T18:41:39.254Z,13.30
2023-02-16T18:44:06.341Z,32.78
2023-02-16T18:46:35.475Z,15.68
2023-02-16T18:49:02.463Z,14.43
2023-02-16T18:51:34.743Z,16.88
2023-02-16T18:54:01.811Z,13.38
2023-02-16T18:56:35.931Z,18.23
2023-02-16T18:59:05.000Z,14.13
2023-02-16T19:01:33.236Z,16.95
2023-02-16T19:04:01.988Z,15.93
2023-02-16T19:06:33.725Z,14.52
2023-02-16T19:09:02.768Z,13.20
2023-02-16T19:11:30.970Z,14.77
2023-02-16T19:13:57.968Z,13.45
2023-02-16T19:16:29.546Z,23.67
2023-02-16T19:18:56.631Z,24.83
2023-02-16T19:21:25.811Z,19.52
2023-02-16T19:23:53.003Z,21.98
2023-02-16T19:26:20.097Z,28.58
2023-02-16T19:28:47.709Z,25.48
2023-02-16T19:31:21.068Z,21.90
2023-02-16T19:33:48.683Z,19.48
2023-02-16T19:36:20.244Z,25.50
2023-02-16T19:38:48.279Z,24.52
2023-02-16T19:41:15.406Z,25.35
2023-02-16T19:43:43.803Z,28.30
2023-02-16T19:46:14.196Z,30.75
2023-02-16T19:48:41.743Z,27.20
2023-02-16T19:51:10.008Z,31.52
2023-02-16T19:53:41.051Z,33.15
2023-02-16T19:56:12.408Z,30.48
2023-02-16T19:58:39.621Z,28.60
2023-02-16T20:01:20.802Z,23.63
2023-02-16T20:03:49.489Z,26.90
2023-02-16T20:06:25.497Z,29.42
2023-02-16T20:08:54.344Z,28.08
2023-02-16T20:11:26.024Z,23.58
2023-02-16T20:13:53.881Z,24.85
2023-02-16T20:16:21.871Z,27.33
2023-02-16T20:18:52.628Z,22.38
2023-02-16T20:21:23.015Z,29.13
2023-02-16T20:23:55.433Z,24.60
2023-02-16T20:26:26.443Z,22.02
2023-02-16T20:29:01.167Z,21.63
2023-02-16T20:31:49.853Z,23.40
2023-02-16T20:34:19.613Z,27.67
2023-02-16T20:36:47.837Z,30.08
2023-02-16T20:39:41.424Z,23.40
2023-02-16T20:42:08.514Z,24.02
2023-02-16T20:44:35.993Z,22.08
2023-02-16T20:47:06.834Z,27.90
2023-02-16T20:49:34.336Z,21.17
2023-02-16T20:52:03.934Z,21.42
2023-02-16T20:54:31.570Z,21.15
2023-02-16T20:56:58.474Z,25.35
2023-02-16T20:59:25.600Z,17.05
2023-02-16T21:01:56.161Z,19.35
2023-02-16T21:04:28.014Z,16.95
2023-02-16T21:06:55.268Z,16.23
2023-02-16T21:11:51.679Z,15.77
2023-02-16T21:14:21.086Z,10.32
2023-02-16T21:16:55.051Z,12.25
2023-02-16T21:19:23.465Z,13.07
2023-02-16T21:21:53.732Z,16.08
2023-02-16T21:24:23.820Z,14.27
2023-02-16T21:26:54.259Z,13.85
2023-02-16T21:29:24.810Z,16.48
2023-02-16T21:31:51.881Z,17.13
2023-02-16T21:34:21.166Z,16.65
2023-02-16T21:36:48.161Z,17.75
2023-02-16T21:39:15.057Z,16.00
2023-02-16T21:41:42.161Z,14.38
2023-02-16T21:44:14.745Z,13.52
2023-02-16T21:46:48.065Z,21.15
2023-02-16T21:49:22.884Z,14.48
2023-02-16T21:51:53.927Z,12.82
2023-02-16T21:55:19.651Z,9.55
2023-02-16T21:57:46.564Z,12.02
2023-02-16T22:00:15.505Z,11.57
2023-02-16T22:02:42.380Z,13.35
2023-02-16T22:05:21.607Z,12.98
2023-02-16T22:07:48.420Z,13.52
2023-02-16T22:10:15.268Z,17.20
2023-02-16T22:12:42.043Z,16.80
2023-02-16T22:15:11.307Z,20.05
2023-02-16T22:17:38.234Z,16.42
2023-02-16T22:20:05.742Z,16.13
2023-02-16T22:22:32.646Z,14.05
2023-02-16T22:24:59.495Z,16.30
2023-02-16T22:27:26.368Z,14.10
2023-02-16T22:29:55.865Z,15.38
2023-02-16T22:32:22.846Z,16.48
2023-02-16T22:34:56.542Z,11.52
2023-02-16T22:37:24.037Z,9.07
2023-02-16T22:39:52.390Z,22.52
2023-02-16T22:42:19.248Z,18.15
2023-02-16T22:44:48.664Z,9.93
2023-02-16T22:47:15.631Z,23.10
2023-02-16T22:49:42.520Z,16.60
2023-02-16T22:52:11.454Z,16.83
2023-02-16T22:54:38.820Z,13.93
2023-02-16T22:59:34.177Z,18.75
2023-02-16T23:02:01.040Z,16.95
2023-02-16T23:04:28.019Z,13.70
2023-02-16T23:06:54.908Z,15.27
2023-02-16T23:09:22.468Z,15.55
2023-02-16T23:11:50.333Z,18.13
2023-02-16T23:14:18.744Z,15.20
2023-02-16T23:16:53.538Z,14.15
2023-02-16T23:19:23.379Z,10.20
2023-02-16T23:21:50.818Z,10.88
2023-02-16T23:24:20.727Z,11.05
2023-02-16T23:26:50.338Z,12.77
2023-02-16T23:31:46.888Z,10.45
2023-02-16T23:34:15.018Z,12.30
2023-02-16T23:36:42.319Z,8.43
2023-02-16T23:39:14.764Z,23.08
2023-02-16T23:41:42.536Z,14.63
2023-02-16T23:44:14.239Z,11.85
2023-02-16T23:46:48.625Z,10.40
2023-02-16T23:49:15.531Z,9.85
2023-02-16T23:51:45.354Z,12.50
2023-02-16T23:54:12.396Z,11.13
2023-02-16T23:56:40.129Z,11.60
2023-02-16T23:59:09.636Z,12.85
